createdAt,value
2018-04-28T00:00:27.577Z,13.70
2018-04-28T00:02:54.632Z,13.70
2018-04-28T00:05:21.682Z,13.70
2018-04-28T00:07:48.749Z,13.70
2018-04-28T00:10:15.801Z,13.70
2018-04-28T00:12:42.861Z,13.70
2018-04-28T00:15:10.689Z,13.70
2018-04-28T00:17:39.143Z,13.70
2018-04-28T00:20:06.191Z,13.70
2018-04-28T00:22:34.217Z,13.70
2018-04-28T00:25:07.153Z,13.70
2018-04-28T00:27:34.869Z,13.70
2018-04-28T00:30:06.630Z,13.70
2018-04-28T00:32:33.705Z,13.60
2018-04-28T00:35:00.749Z,13.70
2018-04-28T00:37:28.598Z,13.60
2018-04-28T00:39:57.209Z,13.60
2018-04-28T00:42:33.729Z,13.60
2018-04-28T00:45:19.540Z,13.60
2018-04-28T00:47:49.049Z,13.50
2018-04-28T00:50:20.801Z,13.40
2018-04-28T00:52:48.621Z,13.40
2018-04-28T00:55:32.495Z,13.40
2018-04-28T00:58:19.173Z,13.40
2018-04-28T01:01:06.145Z,13.40
2018-04-28T01:16:54.065Z,13.30
2018-04-28T01:19:23.868Z,13.30
2018-04-28T01:21:51.685Z,13.20
2018-04-28T01:24:18.734Z,13.20
2018-04-28T01:26:45.793Z,13.20
2018-04-28T01:29:12.854Z,13.20
2018-04-28T01:31:39.961Z,13.20
2018-04-28T01:34:07.794Z,13.20
2018-04-28T01:36:35.632Z,13.20
2018-04-28T01:39:02.681Z,13.10
2018-04-28T01:41:29.749Z,13.10
2018-04-28T01:43:56.817Z,13.10
2018-04-28T01:46:27.609Z,13.10
2018-04-28T01:48:55.471Z,13.10
2018-04-28T01:51:28.601Z,13.00
2018-04-28T01:54:11.305Z,13.00
2018-04-28T01:56:44.189Z,12.90
2018-04-28T01:59:11.245Z,12.90
2018-04-28T02:01:41.936Z,12.80
2018-04-28T02:04:09.664Z,12.70
2018-04-28T02:06:37.524Z,12.70
2018-04-28T02:09:20.240Z,12.70
2018-04-28T02:11:51.992Z,12.60
2018-04-28T02:14:21.741Z,12.60
2018-04-28T02:16:49.581Z,12.60
2018-04-28T02:19:20.561Z,12.60
2018-04-28T02:21:49.529Z,12.60
2018-04-28T02:24:34.277Z,12.60
2018-04-28T02:27:02.003Z,12.60
2018-04-28T02:29:29.853Z,12.50
2018-04-28T02:31:58.753Z,12.50
2018-04-28T02:34:36.649Z,12.50
2018-04-28T02:37:23.485Z,12.50
2018-04-28T02:39:50.530Z,12.50
2018-04-28T02:42:23.394Z,12.40
2018-04-28T02:45:07.267Z,12.40
2018-04-28T02:47:45.006Z,12.30
2018-04-28T02:50:14.149Z,12.30
2018-04-28T02:52:46.929Z,12.20
2018-04-28T02:55:19.886Z,12.20
2018-04-28T02:58:05.813Z,12.20
2018-04-28T03:00:32.892Z,12.20
2018-04-28T03:03:04.843Z,12.20
2018-04-28T03:05:34.021Z,12.10
2018-04-28T03:21:24.635Z,12.10
2018-04-28T03:24:07.818Z,12.00
2018-04-28T03:26:37.226Z,12.00
2018-04-28T03:29:09.120Z,12.00
2018-04-28T03:31:39.424Z,12.00
2018-04-28T03:34:16.607Z,11.90
2018-04-28T03:36:50.917Z,11.80
2018-04-28T03:39:23.898Z,11.70
2018-04-28T03:41:55.887Z,11.70
2018-04-28T03:57:56.612Z,11.50
2018-04-28T04:00:36.894Z,11.40
2018-04-28T04:03:10.958Z,11.40
2018-04-28T04:19:18.725Z,11.40
2018-04-28T04:21:55.241Z,11.40
2018-04-28T04:24:29.563Z,11.50
2018-04-28T04:27:06.597Z,11.50
2018-04-28T04:29:38.356Z,11.50
2018-04-28T04:32:06.665Z,11.60
2018-04-28T04:48:13.729Z,11.60
2018-04-28T05:04:29.974Z,11.90
2018-04-28T05:07:05.905Z,11.80
2018-04-28T05:09:37.006Z,11.90
2018-04-28T05:12:12.157Z,11.90
2018-04-28T05:14:48.653Z,12.00
2018-04-28T05:17:36.651Z,12.10
2018-04-28T05:20:31.037Z,12.10
2018-04-28T05:23:21.306Z,12.20
2018-04-28T05:25:54.782Z,12.30
2018-04-28T05:28:34.042Z,12.40
2018-04-28T05:31:12.238Z,12.50
2018-04-28T05:47:06.693Z,12.80
2018-04-28T05:49:40.367Z,12.90
2018-04-28T05:52:13.224Z,12.80
2018-04-28T05:54:56.114Z,12.90
2018-04-28T05:57:42.010Z,13.00
2018-04-28T06:00:10.007Z,13.00
2018-04-28T06:02:54.029Z,13.10
2018-04-28T06:05:26.002Z,13.20
2018-04-28T06:07:59.023Z,13.20
2018-04-28T06:10:31.989Z,13.20
2018-04-28T06:13:04.871Z,13.20
2018-04-28T06:15:33.772Z,13.30
2018-04-28T06:18:15.720Z,13.40
2018-04-28T06:20:42.778Z,13.50
2018-04-28T06:23:09.820Z,13.60
2018-04-28T06:25:36.978Z,13.60
2018-04-28T06:28:04.037Z,13.70
2018-04-28T06:30:31.085Z,13.70
2018-04-28T06:32:58.149Z,13.80
2018-04-28T06:35:25.196Z,13.90
2018-04-28T06:37:52.261Z,14.00
2018-04-28T06:40:19.761Z,14.10
2018-04-28T06:42:47.289Z,14.20
2018-04-28T06:45:14.825Z,14.30
2018-04-28T06:47:42.335Z,14.40
2018-04-28T06:50:09.841Z,14.50
2018-04-28T06:52:37.337Z,14.50
2018-04-28T06:55:05.610Z,14.70
2018-04-28T06:57:33.886Z,14.80
2018-04-28T07:00:02.178Z,15.00
2018-04-28T07:02:30.454Z,15.00
2018-04-28T07:04:58.718Z,15.10
2018-04-28T07:07:26.994Z,15.20
2018-04-28T07:09:55.307Z,15.30
2018-04-28T07:12:22.801Z,15.30
2018-04-28T07:14:50.323Z,15.40
2018-04-28T07:17:17.840Z,15.50
2018-04-28T07:19:45.342Z,15.60
2018-04-28T07:22:12.905Z,15.60
2018-04-28T07:24:40.412Z,15.70
2018-04-28T07:27:07.930Z,15.80
2018-04-28T07:29:35.466Z,15.90
2018-04-28T07:32:02.541Z,15.90
2018-04-28T07:34:30.109Z,16.00
2018-04-28T07:36:57.243Z,16.10
2018-04-28T07:39:24.964Z,16.30
2018-04-28T07:41:52.844Z,16.50
2018-04-28T07:44:20.769Z,16.50
2018-04-28T07:46:49.088Z,16.70
2018-04-28T07:49:17.393Z,17.00
2018-04-28T07:51:44.893Z,17.00
2018-04-28T07:54:12.401Z,17.20
2018-04-28T07:56:39.966Z,17.30
2018-04-28T07:59:08.201Z,17.40
2018-04-28T08:01:35.249Z,17.40
2018-04-28T08:04:03.518Z,22.50
2018-04-28T08:06:31.803Z,26.90
2018-04-28T08:09:00.092Z,31.80
2018-04-28T08:11:28.374Z,34.90
2018-04-28T08:13:56.662Z,37.90
2018-04-28T08:16:24.165Z,37.70
2018-04-28T08:18:51.689Z,41.70
2018-04-28T08:21:19.185Z,41.50
2018-04-28T08:23:46.687Z,39.90
2018-04-28T08:26:14.949Z,41.10
2018-04-28T08:28:42.525Z,41.00
2018-04-28T08:31:10.050Z,39.10
2018-04-28T08:33:37.557Z,37.60
2018-04-28T08:36:05.118Z,35.20
2018-04-28T08:38:32.638Z,33.10
2018-04-28T08:41:00.913Z,29.50
2018-04-28T08:43:29.217Z,28.00
2018-04-28T08:45:56.718Z,27.90
2018-04-28T08:48:24.256Z,26.70
2018-04-28T08:50:51.758Z,25.80
2018-04-28T08:53:19.258Z,25.10
2018-04-28T08:55:46.770Z,24.40
2018-04-28T08:58:14.289Z,23.80
2018-04-28T09:00:42.589Z,23.40
2018-04-28T09:03:10.105Z,22.90
2018-04-28T09:05:37.623Z,22.60
2018-04-28T09:08:05.125Z,22.40
2018-04-28T09:10:32.630Z,22.10
2018-04-28T09:13:00.155Z,21.80
2018-04-28T09:15:27.641Z,21.50
2018-04-28T09:17:55.142Z,21.40
2018-04-28T09:20:23.426Z,21.20
2018-04-28T09:22:50.500Z,21.10
2018-04-28T09:25:17.560Z,21.10
2018-04-28T09:27:44.609Z,21.10
2018-04-28T09:30:11.677Z,21.10
2018-04-28T09:32:38.771Z,21.10
2018-04-28T09:35:06.269Z,21.10
2018-04-28T09:37:33.317Z,21.00
2018-04-28T09:40:00.400Z,21.00
2018-04-28T09:42:27.422Z,21.00
2018-04-28T09:44:54.477Z,21.10
2018-04-28T09:47:21.537Z,21.10
2018-04-28T09:49:48.586Z,21.10
2018-04-28T09:52:15.645Z,21.10
2018-04-28T09:54:42.721Z,21.10
2018-04-28T09:57:09.876Z,21.10
2018-04-28T09:59:36.918Z,21.20
2018-04-28T10:02:09.786Z,21.20
2018-04-28T10:04:37.609Z,21.40
2018-04-28T10:07:04.653Z,21.30
2018-04-28T10:09:32.173Z,21.50
2018-04-28T10:11:59.670Z,21.60
2018-04-28T10:14:27.181Z,21.80
2018-04-28T10:16:54.693Z,21.90
2018-04-28T10:19:22.185Z,22.10
2018-04-28T10:21:50.449Z,22.40
2018-04-28T10:24:17.942Z,22.40
2018-04-28T10:26:45.460Z,22.60
2018-04-28T10:29:12.982Z,22.70
2018-04-28T10:31:40.477Z,22.80
2018-04-28T10:34:07.996Z,22.90
2018-04-28T10:36:35.501Z,23.00
2018-04-28T10:39:02.997Z,22.90
2018-04-28T10:41:30.501Z,22.90
2018-04-28T10:43:59.513Z,23.00
2018-04-28T10:46:27.782Z,23.10
2018-04-28T10:48:55.286Z,23.10
2018-04-28T10:51:22.798Z,23.20
2018-04-28T10:53:50.362Z,23.20
2018-04-28T10:56:17.810Z,23.10
2018-04-28T10:58:45.314Z,23.20
2018-04-28T11:01:12.879Z,23.40
2018-04-28T11:03:40.383Z,23.50
2018-04-28T11:06:07.902Z,23.60
2018-04-28T11:08:35.420Z,23.70
2018-04-28T11:11:03.697Z,24.20
2018-04-28T11:13:31.988Z,24.40
2018-04-28T11:15:59.489Z,24.40
2018-04-28T11:18:26.985Z,24.50
2018-04-28T11:20:54.501Z,24.60
2018-04-28T11:23:22.185Z,24.60
2018-04-28T11:25:49.720Z,24.50
2018-04-28T11:28:17.216Z,24.40
2018-04-28T11:30:44.748Z,24.40
2018-04-28T11:33:12.241Z,24.40
2018-04-28T11:35:40.617Z,24.40
2018-04-28T11:38:08.241Z,24.50
2018-04-28T11:40:35.749Z,24.60
2018-04-28T11:43:04.011Z,25.00
2018-04-28T11:45:32.275Z,25.20
2018-04-28T11:48:00.538Z,25.40
2018-04-28T11:50:28.034Z,25.40
2018-04-28T11:52:56.293Z,25.60
2018-04-28T11:55:23.801Z,25.60
2018-04-28T11:57:51.313Z,25.70
2018-04-28T12:00:19.577Z,26.10
2018-04-28T12:02:47.092Z,26.00
2018-04-28T12:05:14.671Z,26.20
2018-04-28T12:07:42.898Z,26.30
2018-04-28T12:10:11.162Z,26.30
2018-04-28T12:12:39.512Z,26.40
2018-04-28T12:15:06.945Z,26.40
2018-04-28T12:17:34.437Z,26.50
2018-04-28T12:20:01.952Z,26.60
2018-04-28T12:22:29.446Z,26.60
2018-04-28T12:24:56.942Z,26.60
2018-04-28T12:27:25.205Z,26.90
2018-04-28T12:29:52.728Z,26.90
2018-04-28T12:32:20.230Z,26.90
2018-04-28T12:34:48.496Z,27.10
2018-04-28T12:37:15.985Z,27.10
2018-04-28T12:39:43.541Z,27.20
2018-04-28T12:42:11.813Z,27.50
2018-04-28T12:44:40.087Z,27.70
2018-04-28T12:47:08.348Z,27.80
2018-04-28T12:49:36.621Z,28.00
2018-04-28T12:52:04.125Z,28.00
2018-04-28T12:54:31.930Z,28.20
2018-04-28T12:57:00.293Z,28.50
2018-04-28T12:59:27.827Z,28.50
2018-04-28T13:01:55.329Z,28.50
2018-04-28T13:04:24.325Z,28.80
2018-04-28T13:06:51.817Z,28.80
2018-04-28T13:09:20.078Z,28.80
2018-04-28T13:11:48.338Z,29.00
2018-04-28T13:14:16.606Z,29.20
2018-04-28T13:16:44.142Z,29.30
2018-04-28T13:19:11.648Z,29.30
2018-04-28T13:21:39.917Z,29.50
2018-04-28T13:24:07.421Z,29.50
2018-04-28T13:26:34.949Z,29.80
2018-04-28T13:29:03.226Z,30.10
2018-04-28T13:31:31.485Z,30.00
2018-04-28T13:33:58.977Z,29.90
2018-04-28T13:36:26.482Z,29.70
2018-04-28T13:38:53.973Z,29.60
2018-04-28T13:41:22.229Z,29.50
2018-04-28T13:43:49.725Z,29.50
2018-04-28T13:46:17.234Z,29.30
2018-04-28T13:48:44.750Z,29.00
2018-04-28T13:51:12.254Z,28.80
2018-04-28T13:53:39.771Z,28.80
2018-04-28T13:56:07.341Z,28.80
2018-04-28T13:58:35.677Z,28.70
2018-04-28T14:01:03.954Z,28.70
2018-04-28T14:03:32.233Z,28.80
2018-04-28T14:06:00.514Z,28.90
2018-04-28T14:08:28.778Z,29.00
2018-04-28T14:10:57.289Z,28.90
2018-04-28T14:13:24.794Z,28.90
2018-04-28T14:15:52.310Z,28.70
2018-04-28T14:18:19.833Z,28.70
2018-04-28T14:20:47.357Z,28.60
2018-04-28T14:23:14.869Z,28.40
2018-04-28T14:25:43.129Z,28.20
2018-04-28T14:28:11.389Z,28.20
2018-04-28T14:30:39.663Z,28.20
2018-04-28T14:33:07.153Z,28.20
2018-04-28T14:35:35.437Z,28.80
2018-04-28T14:38:02.929Z,28.80
2018-04-28T14:40:30.437Z,29.20
2018-04-28T14:42:58.722Z,29.90
2018-04-28T14:45:27.002Z,30.30
2018-04-28T14:47:54.520Z,30.20
2018-04-28T14:50:22.018Z,30.50
2018-04-28T14:52:50.348Z,31.00
2018-04-28T14:55:18.561Z,31.20
2018-04-28T14:57:46.833Z,31.50
2018-04-28T15:00:15.096Z,31.70
2018-04-28T15:02:43.363Z,31.90
2018-04-28T15:05:10.854Z,31.80
2018-04-28T15:07:39.117Z,31.90
2018-04-28T15:10:07.406Z,31.90
2018-04-28T15:12:35.698Z,31.90
2018-04-28T15:15:03.207Z,31.90
2018-04-28T15:17:30.737Z,31.50
2018-04-28T15:19:58.246Z,31.10
2018-04-28T15:22:26.510Z,30.60
2018-04-28T15:24:54.778Z,30.50
2018-04-28T15:27:22.271Z,30.40
2018-04-28T15:29:50.545Z,30.40
2018-04-28T15:32:18.806Z,30.30
2018-04-28T15:34:46.302Z,30.20
2018-04-28T15:37:13.841Z,30.20
2018-04-28T15:39:42.097Z,30.00
2018-04-28T15:42:09.606Z,29.90
2018-04-28T15:44:37.101Z,29.70
2018-04-28T15:47:04.605Z,29.50
2018-04-28T15:49:32.178Z,29.50
2018-04-28T15:51:59.673Z,29.60
2018-04-28T15:54:27.181Z,29.80
2018-04-28T15:56:54.693Z,29.90
2018-04-28T15:59:22.185Z,30.00
2018-04-28T16:01:50.450Z,30.00
2018-04-28T16:04:18.743Z,30.20
2018-04-28T16:06:47.014Z,30.40
2018-04-28T16:09:15.273Z,30.60
2018-04-28T16:11:42.794Z,30.60
2018-04-28T16:14:10.297Z,30.60
2018-04-28T16:16:38.558Z,30.40
2018-04-28T16:19:06.050Z,30.40
2018-04-28T16:21:33.544Z,30.20
2018-04-28T16:24:01.058Z,29.90
2018-04-28T16:26:29.321Z,29.20
2018-04-28T16:28:57.585Z,29.00
2018-04-28T16:31:25.092Z,29.00
2018-04-28T16:33:52.587Z,28.70
2018-04-28T16:36:20.217Z,28.40
2018-04-28T16:38:47.751Z,28.20
2018-04-28T16:41:16.010Z,27.70
2018-04-28T16:43:43.519Z,27.70
2018-04-28T16:46:11.018Z,27.50
2018-04-28T16:48:38.525Z,27.40
2018-04-28T16:51:06.116Z,27.30
2018-04-28T16:53:33.609Z,27.10
2018-04-28T16:56:01.894Z,26.80
2018-04-28T16:58:30.161Z,26.60
2018-04-28T17:00:58.424Z,26.50
2018-04-28T17:03:25.936Z,26.50
2018-04-28T17:05:53.425Z,26.30
2018-04-28T17:08:20.925Z,26.30
2018-04-28T17:10:49.194Z,26.00
2018-04-28T17:13:17.474Z,25.90
2018-04-28T17:15:45.734Z,25.80
2018-04-28T17:18:13.223Z,25.80
2018-04-28T17:20:40.717Z,25.70
2018-04-28T17:23:08.210Z,25.60
2018-04-28T17:25:36.481Z,25.40
2018-04-28T17:28:03.969Z,25.40
2018-04-28T17:30:32.246Z,25.30
2018-04-28T17:32:59.756Z,25.30
2018-04-28T17:35:27.253Z,25.30
2018-04-28T17:37:55.514Z,25.00
2018-04-28T17:40:24.530Z,25.00
2018-04-28T17:42:52.860Z,24.90
2018-04-28T17:45:20.329Z,24.90
2018-04-28T17:47:48.605Z,24.80
2018-04-28T17:50:17.621Z,24.70
2018-04-28T17:52:45.884Z,24.70
2018-04-28T17:55:14.163Z,24.60
2018-04-28T17:57:41.675Z,24.60
2018-04-28T18:00:09.164Z,24.50
2018-04-28T18:02:37.462Z,24.40
2018-04-28T18:05:04.979Z,24.30
2018-04-28T18:07:32.477Z,24.30
2018-04-28T18:09:59.965Z,24.20
2018-04-28T18:12:27.483Z,24.10
2018-04-28T18:14:55.814Z,24.00
2018-04-28T18:17:23.322Z,23.90
2018-04-28T18:19:50.933Z,23.90
2018-04-28T18:22:18.441Z,23.80
2018-04-28T18:24:45.966Z,23.80
2018-04-28T18:27:13.466Z,23.70
2018-04-28T18:29:41.758Z,23.60
2018-04-28T18:32:09.345Z,23.60
2018-04-28T18:34:36.853Z,23.60
2018-04-28T18:37:04.349Z,23.60
2018-04-28T18:39:31.849Z,23.50
2018-04-28T18:41:59.435Z,23.50
2018-04-28T18:44:26.889Z,23.40
2018-04-28T18:46:54.397Z,23.30
2018-04-28T18:49:21.889Z,23.30
2018-04-28T18:51:49.425Z,23.30
2018-04-28T18:54:16.921Z,23.30
2018-04-28T18:56:45.204Z,23.30
2018-04-28T18:59:12.694Z,23.20
2018-04-28T19:01:40.197Z,23.20
2018-04-28T19:04:07.845Z,23.20
2018-04-28T19:06:35.343Z,23.20
2018-04-28T19:09:03.627Z,23.10
2018-04-28T19:11:31.897Z,23.10
2018-04-28T19:13:59.392Z,23.10
2018-04-28T19:16:26.929Z,23.00
2018-04-28T19:18:55.209Z,23.00
2018-04-28T19:21:23.511Z,23.00
2018-04-28T19:23:51.040Z,23.00
2018-04-28T19:26:19.306Z,23.00
2018-04-28T19:28:47.561Z,22.90
2018-04-28T19:31:15.122Z,22.90
2018-04-28T19:33:42.573Z,22.90
2018-04-28T19:36:10.070Z,22.80
2018-04-28T19:38:38.425Z,22.70
2018-04-28T19:41:06.358Z,22.70
2018-04-28T19:43:34.701Z,22.70
2018-04-28T19:46:02.965Z,22.70
2018-04-28T19:48:31.277Z,22.70
2018-04-28T19:50:59.497Z,22.60
2018-04-28T19:53:27.753Z,22.60
2018-04-28T19:55:55.262Z,22.60
2018-04-28T19:58:23.545Z,22.60
2018-04-28T20:00:51.094Z,22.50
2018-04-28T20:03:19.369Z,22.50
2018-04-28T20:05:47.645Z,22.50
2018-04-28T20:08:15.902Z,22.40
2018-04-28T20:10:43.449Z,22.40
2018-04-28T20:13:10.937Z,22.30
2018-04-28T20:15:39.212Z,22.30
2018-04-28T20:18:07.470Z,22.20
2018-04-28T20:20:34.961Z,22.20
2018-04-28T20:23:14.377Z,22.20
2018-04-28T20:25:42.638Z,22.10
2018-04-28T20:28:10.529Z,22.10
2018-04-28T20:30:38.814Z,22.00
2018-04-28T20:33:07.069Z,22.00
2018-04-28T20:35:34.568Z,22.00
2018-04-28T20:38:02.069Z,22.00
2018-04-28T20:40:30.337Z,22.00
2018-04-28T20:42:57.891Z,21.90
2018-04-28T20:45:25.341Z,21.90
2018-04-28T20:47:52.846Z,21.90
2018-04-28T20:50:21.131Z,21.80
2018-04-28T20:52:49.382Z,21.80
2018-04-28T20:55:16.889Z,21.80
2018-04-28T20:57:44.387Z,21.70
2018-04-28T21:00:11.899Z,21.60
2018-04-28T21:02:39.389Z,21.60
2018-04-28T21:05:06.898Z,21.50
2018-04-28T21:07:35.152Z,21.40
2018-04-28T21:10:02.666Z,21.40
2018-04-28T21:12:30.179Z,21.40
2018-04-28T21:14:58.446Z,21.30
2018-04-28T21:17:27.448Z,21.20
2018-04-28T21:19:56.163Z,21.20
2018-04-28T21:22:23.653Z,21.20
2018-04-28T21:24:51.148Z,21.20
2018-04-28T21:27:18.645Z,21.20
2018-04-28T21:29:46.137Z,21.10
2018-04-28T21:32:13.641Z,21.10
2018-04-28T21:34:42.721Z,20.80
2018-04-28T21:37:11.079Z,20.70
2018-04-28T21:39:38.597Z,20.70
2018-04-28T21:42:06.126Z,20.70
2018-04-28T21:44:34.389Z,20.50
2018-04-28T21:47:01.896Z,20.40
2018-04-28T21:49:29.402Z,20.40
2018-04-28T21:51:56.915Z,20.30
2018-04-28T21:54:24.437Z,20.30
2018-04-28T21:56:52.701Z,20.10
2018-04-28T21:59:20.974Z,20.00
2018-04-28T22:01:48.462Z,20.00
2018-04-28T22:04:15.966Z,19.90
2018-04-28T22:06:43.469Z,19.80
2018-04-28T22:09:11.732Z,19.70
2018-04-28T22:11:40.070Z,19.60
2018-04-28T22:14:08.305Z,19.50
2018-04-28T22:16:35.805Z,19.50
2018-04-28T22:19:03.298Z,19.50
2018-04-28T22:21:30.785Z,19.30
2018-04-28T22:23:58.294Z,19.30
2018-04-28T22:26:25.787Z,19.20
2018-04-28T22:28:54.050Z,19.10
2018-04-28T22:31:21.547Z,19.10
2018-04-28T22:33:49.038Z,19.00
2018-04-28T22:36:16.545Z,19.00
2018-04-28T22:38:44.813Z,18.90
2018-04-28T22:41:13.092Z,18.90
2018-04-28T22:43:41.353Z,18.80
2018-04-28T22:46:09.633Z,18.80
2018-04-28T22:48:37.910Z,18.70
2018-04-28T22:51:06.172Z,18.60
2018-04-28T22:53:33.670Z,18.60
2018-04-28T22:56:01.178Z,18.60
2018-04-28T22:58:28.680Z,18.50
2018-04-28T23:00:56.173Z,18.40
2018-04-28T23:03:23.665Z,18.40
2018-04-28T23:05:51.930Z,18.30
2018-04-28T23:08:19.451Z,18.20
2018-04-28T23:10:46.946Z,18.20
2018-04-28T23:13:14.465Z,18.10
2018-04-28T23:15:41.965Z,18.10
2018-04-28T23:18:09.473Z,18.10
2018-04-28T23:20:37.014Z,18.10
2018-04-28T23:23:05.289Z,18.00
2018-04-28T23:25:33.566Z,18.00
2018-04-28T23:28:01.846Z,17.90
2018-04-28T23:30:30.121Z,17.90
2018-04-28T23:32:58.393Z,17.90
2018-04-28T23:35:26.674Z,17.90
2018-04-28T23:37:54.954Z,17.80
2018-04-28T23:40:23.229Z,17.80
2018-04-28T23:42:51.503Z,17.80
2018-04-28T23:45:19.769Z,17.80
2018-04-28T23:47:48.029Z,17.80
2018-04-28T23:50:15.555Z,17.80
2018-04-28T23:52:43.057Z,17.80
2018-04-28T23:55:11.331Z,17.70
2018-04-28T23:57:39.613Z,17.70
